Burkett, Texas
Current Conditions -  °F | °C
As of 12:55 PM on Friday 31 Oct 2014 (Local Time) from KCOM Reporting Station
Clear Clear  
Wind Chill: 67°   Ceiling: Unl
Heat Index: 67°   Visibility: 10mi
Dew Point: 39°   Wind: 13mph
Humidity: 37%   Direction: 10°N
Pressure: 30.38"   Gusts: 17mph
Location:  32°N, 99.23°W
Report Text: KCOM 311755Z AUTO 01011G15KT 10SM CLR 19/04 A3038 RMK AO2 T01920041 10192 20107
Loading
Personal Weather Stations






























Interactive Weather Map
Tropical Storm Tracking
New forecast layout! Learn more

10-Day Weather Forecast

Advertisements
Track Severe Weather on mobile